Terminal Aerodrome Forecast
Issued by NWS Sioux Falls, SD

Home | Current Version | Previous Version | Text Only | Print | Product List | Glossary On
Versions: 1 2 3 4 5 6 7 8 9 10 11 12 13 14 15 16 17 18 19 20 21 22 23
000
FTUS43 KFSD 221120
TAFFSD
TAF
KFSD 221120Z 2212/2312 17010KT 5SM -RA OVC005
     FM221600 18008KT 4SM BR OVC008
     FM221900 VRB04KT 2SM -DZ BR OVC008
     FM230100 34007KT 4SM -SN BR OVC006
     FM230900 35012KT 2SM -SN BR OVC008=

USA.gov is the U.S. government's official web portal to all federal, state and local government web resources and services.